Time;durP1;ratioP1;P1;durP2;ratioP2;P2;SDS_P1;SDS_P2;PMS_P1;PMS_P2;Temp;Humidity;BMP_temperature;BMP_pressure;BME280_temperature;BME280_humidity;BME280_pressure;Samples;Min_cycle;Max_cycle;Signal;HPM_P1;HPM_P2
2021/01/29 00:01:59;;;;;;;31.23;23.38;;;3.60;73.90;;;;;;5037633;28;20034;-59
2021/01/29 00:04:25;;;;;;;27.75;18.50;;;3.60;74.30;;;;;;5036053;28;20684;-59
2021/01/29 00:06:51;;;;;;;27.88;18.50;;;3.60;74.70;;;;;;5036299;28;20054;-60
2021/01/29 00:09:19;;;;;;;26.83;16.73;;;3.50;74.40;;;;;;5037100;28;20067;-59
2021/01/29 00:11:46;;;;;;;23.17;17.50;;;3.50;74.60;;;;;;5038091;28;20045;-59
2021/01/29 00:14:12;;;;;;;24.90;17.45;;;3.50;74.80;;;;;;5036867;28;20540;-59
2021/01/29 00:16:38;;;;;;;27.25;17.50;;;3.40;74.80;;;;;;5037640;28;20040;-59
2021/01/29 00:19:04;;;;;;;22.30;16.27;;;3.40;75.00;;;;;;5037563;28;20044;-59
2021/01/29 00:21:29;;;;;;;24.38;17.27;;;3.30;75.20;;;;;;5037270;28;20573;-59
2021/01/29 00:23:55;;;;;;;24.38;17.85;;;3.20;75.40;;;;;;5036901;28;20491;-59
2021/01/29 00:26:21;;;;;;;25.35;17.05;;;3.30;75.80;;;;;;5038222;28;20037;-59
2021/01/29 00:28:47;;;;;;;26.33;17.77;;;3.30;76.00;;;;;;5037176;28;20128;-59
2021/01/29 00:31:13;;;;;;;27.02;18.02;;;3.30;76.00;;;;;;5038579;28;20029;-58
2021/01/29 00:33:38;;;;;;;26.90;19.15;;;3.30;76.00;;;;;;5036415;28;20045;-59
2021/01/29 00:36:05;;;;;;;25.10;20.00;;;3.40;76.10;;;;;;5037555;28;20055;-59
2021/01/29 00:38:31;;;;;;;27.50;19.25;;;3.40;75.70;;;;;;5036914;28;20053;-59
2021/01/29 00:40:56;;;;;;;26.52;20.25;;;3.30;75.70;;;;;;5037402;28;20489;-58
2021/01/29 00:43:22;;;;;;;28.70;20.35;;;3.30;76.00;;;;;;5037839;28;20052;-58
2021/01/29 00:45:49;;;;;;;26.65;20.10;;;3.30;76.40;;;;;;5037094;28;20079;-58
2021/01/29 00:48:14;;;;;;;23.17;17.80;;;3.30;76.10;;;;;;5036723;28;20081;-58
2021/01/29 00:50:40;;;;;;;26.35;17.02;;;3.30;76.10;;;;;;5037340;28;20037;-58
2021/01/29 00:53:07;;;;;;;23.17;17.02;;;3.30;76.70;;;;;;5033893;28;20043;-58
2021/01/29 00:55:33;;;;;;;23.25;16.10;;;3.20;76.10;;;;;;5037826;28;20464;-58
2021/01/29 00:57:59;;;;;;;23.25;18.00;;;3.30;76.20;;;;;;5037557;28;20029;-58
2021/01/29 01:00:26;;;;;;;23.10;16.05;;;3.20;76.50;;;;;;5036739;28;20146;-58
2021/01/29 01:02:52;;;;;;;21.80;15.57;;;3.30;76.50;;;;;;5036379;28;20085;-58
2021/01/29 01:05:21;;;;;;;22.30;16.88;;;3.30;76.80;;;;;;5036376;28;20049;-59
2021/01/29 01:07:47;;;;;;;20.77;15.85;;;3.30;76.40;;;;;;5036588;28;20132;-59
2021/01/29 01:10:14;;;;;;;28.67;17.58;;;3.30;76.60;;;;;;5036635;28;20117;-59
2021/01/29 01:12:39;;;;;;;26.35;18.05;;;3.20;76.80;;;;;;5035883;28;20045;-59
2021/01/29 01:15:15;;;;;;;24.73;17.50;;;3.20;77.10;;;;;;5037179;28;20511;-59
2021/01/29 01:17:41;;;;;;;24.42;16.77;;;3.20;77.00;;;;;;5036540;28;20052;-59
2021/01/29 01:20:10;;;;;;;22.65;16.63;;;3.20;77.40;;;;;;5052795;28;20065;-59
2021/01/29 01:22:36;;;;;;;24.02;17.77;;;3.20;77.50;;;;;;5035654;28;20587;-59
2021/01/29 01:25:03;;;;;;;23.00;17.75;;;3.10;77.30;;;;;;5036169;28;20037;-59
2021/01/29 01:27:28;;;;;;;25.33;20.23;;;3.10;77.40;;;;;;5036448;28;20174;-60
2021/01/29 01:29:54;;;;;;;28.63;20.85;;;3.10;77.90;;;;;;5035101;28;20029;-59
2021/01/29 01:32:20;;;;;;;33.42;24.55;;;3.00;78.40;;;;;;5036191;28;20041;-59
2021/01/29 01:34:46;;;;;;;31.23;24.33;;;3.00;78.20;;;;;;5036516;28;20045;-59
2021/01/29 01:37:12;;;;;;;26.42;19.92;;;3.00;78.30;;;;;;5036744;28;20044;-59
2021/01/29 01:39:37;;;;;;;32.17;22.00;;;2.90;78.30;;;;;;5036445;28;20375;-59
2021/01/29 01:42:04;;;;;;;24.83;19.65;;;2.90;78.50;;;;;;5036353;28;20087;-59
2021/01/29 01:44:32;;;;;;;24.90;17.63;;;2.90;78.20;;;;;;5035750;28;20059;-59
2021/01/29 01:47:22;;;;;;;27.63;19.77;;;2.90;78.30;;;;;;5035965;28;20478;-59
2021/01/29 01:49:50;;;;;;;21.95;15.90;;;2.80;78.30;;;;;;5031924;28;20103;-59
2021/01/29 01:52:34;;;;;;;24.17;18.50;;;2.80;78.40;;;;;;5036111;28;20040;-59
2021/01/29 01:55:02;;;;;;;32.33;21.55;;;2.90;78.70;;;;;;5036111;28;20041;-59
2021/01/29 01:57:31;;;;;;;32.97;26.27;;;2.80;79.80;;;;;;5036512;28;20042;-59
2021/01/29 02:00:09;;;;;;;24.95;17.35;;;2.70;80.30;;;;;;5035843;28;20084;-59
2021/01/29 02:02:37;;;;;;;27.23;19.70;;;2.70;81.80;;;;;;5036632;28;20033;-59
2021/01/29 02:05:08;;;;;;;29.67;21.70;;;2.60;82.70;;;;;;5038281;28;20125;-58
2021/01/29 02:07:42;;;;;;;22.60;15.15;;;2.60;83.80;;;;;;5039898;28;20049;-58
2021/01/29 02:10:09;;;;;;;22.90;13.68;;;2.60;84.40;;;;;;5039471;28;20088;-58
2021/01/29 02:12:35;;;;;;;20.48;14.65;;;2.50;83.70;;;;;;5038353;28;20037;-62
2021/01/29 02:15:00;;;;;;;22.92;15.38;;;2.50;83.90;;;;;;5040248;28;20025;-58
2021/01/29 02:17:35;;;;;;;25.45;16.58;;;2.40;84.80;;;;;;5041327;28;20563;-58
2021/01/29 02:20:25;;;;;;;25.38;16.58;;;2.40;85.50;;;;;;5038744;28;20055;-58
2021/01/29 02:23:23;;;;;;;23.77;16.23;;;2.30;86.20;;;;;;5039093;28;20144;-58
2021/01/29 02:26:16;;;;;;;25.65;15.93;;;2.40;88.10;;;;;;5007454;28;20067;-58
2021/01/29 02:29:06;;;;;;;23.17;14.67;;;2.30;87.80;;;;;;5039940;28;20390;-58
2021/01/29 02:31:44;;;;;;;23.80;15.98;;;2.30;87.20;;;;;;5038504;28;20489;-58
2021/01/29 02:34:25;;;;;;;24.50;16.30;;;2.30;87.00;;;;;;5038027;28;20045;-58
2021/01/29 02:37:06;;;;;;;23.90;15.73;;;2.30;86.90;;;;;;5040740;28;20041;-58
2021/01/29 02:39:57;;;;;;;24.47;16.37;;;2.30;87.20;;;;;;5038125;28;20045;-58
2021/01/29 02:42:48;;;;;;;25.97;14.23;;;2.30;87.30;;;;;;5038844;28;20044;-58
2021/01/29 02:45:45;;;;;;;22.17;14.87;;;2.30;87.00;;;;;;5038130;28;20037;-58
2021/01/29 02:48:20;;;;;;;24.27;16.90;;;2.30;86.80;;;;;;5039500;28;20070;-59
2021/01/29 02:51:16;;;;;;;20.73;14.13;;;2.30;86.80;;;;;;5039321;28;20041;-58
2021/01/29 02:54:04;;;;;;;22.13;15.23;;;2.30;86.50;;;;;;5039309;28;20029;-57
2021/01/29 02:56:37;;;;;;;24.53;16.20;;;2.40;86.60;;;;;;5040618;28;20469;-57
2021/01/29 02:59:19;;;;;;;26.15;14.82;;;2.30;86.00;;;;;;5037727;28;20049;-58
2021/01/29 03:02:13;;;;;;;18.30;12.37;;;2.40;86.50;;;;;;5039119;28;20131;-58
2021/01/29 03:04:53;;;;;;;21.93;14.97;;;2.40;86.60;;;;;;5038671;28;20045;-58
2021/01/29 03:07:26;;;;;;;25.47;14.67;;;2.40;86.00;;;;;;5039282;28;20495;-59
2021/01/29 03:10:02;;;;;;;21.52;13.15;;;2.40;86.30;;;;;;5038460;28;20040;-58
2021/01/29 03:12:34;;;;;;;20.53;13.67;;;2.40;86.00;;;;;;5039440;28;20037;-59
2021/01/29 03:15:19;;;;;;;23.93;14.33;;;2.40;85.80;;;;;;5038985;28;20033;-58
2021/01/29 03:17:53;;;;;;;20.50;12.57;;;2.50;86.00;;;;;;5037664;28;20072;-59
2021/01/29 03:20:24;;;;;;;21.97;13.97;;;2.50;85.60;;;;;;5037778;28;20041;-59
2021/01/29 03:22:55;;;;;;;20.03;13.17;;;2.40;85.30;;;;;;5038770;28;20029;-59
2021/01/29 03:25:30;;;;;;;21.23;13.37;;;2.40;85.20;;;;;;5039096;28;20060;-59
2021/01/29 03:28:07;;;;;;;18.77;12.93;;;2.30;85.30;;;;;;5038524;28;20435;-59
2021/01/29 03:30:36;;;;;;;20.93;12.83;;;2.40;85.60;;;;;;5038174;28;20030;-59
2021/01/29 03:33:04;;;;;;;21.23;14.23;;;2.30;85.20;;;;;;5039547;28;20037;-59
2021/01/29 03:35:36;;;;;;;20.63;13.83;;;2.30;85.10;;;;;;5040474;28;20036;-59
2021/01/29 03:38:29;;;;;;;22.27;14.27;;;2.30;85.40;;;;;;5037686;28;20602;-59
2021/01/29 03:41:00;;;;;;;22.38;14.00;;;2.30;85.30;;;;;;5039227;28;20043;-59
2021/01/29 03:43:30;;;;;;;23.47;14.53;;;2.20;85.10;;;;;;5039357;28;20045;-59
2021/01/29 03:46:28;;;;;;;18.93;13.83;;;2.30;85.40;;;;;;5038690;28;20041;-59
2021/01/29 03:49:19;;;;;;;21.73;14.70;;;2.30;85.80;;;;;;5037190;28;20492;-59
2021/01/29 03:52:02;;;;;;;19.40;13.80;;;2.30;85.30;;;;;;5039309;28;20029;-58
2021/01/29 03:55:17;;;;;;;19.47;13.13;;;2.40;86.10;;;;;;5038757;28;20094;-58
2021/01/29 03:58:07;;;;;;;18.63;12.33;;;2.40;85.60;;;;;;5026441;28;20557;-58
2021/01/29 04:00:37;;;;;;;23.23;13.63;;;2.30;85.40;;;;;;5038179;28;20044;-58
2021/01/29 04:03:29;;;;;;;23.60;14.13;;;2.30;86.10;;;;;;5036576;28;20045;-58
2021/01/29 04:06:06;;;;;;;21.70;15.53;;;2.30;85.60;;;;;;5038706;28;20037;-58
2021/01/29 04:08:36;;;;;;;28.80;16.90;;;2.20;86.90;;;;;;5037949;28;20504;-58
2021/01/29 04:11:07;;;;;;;22.93;15.10;;;2.20;87.00;;;;;;5038242;28;20043;-58
2021/01/29 04:13:40;;;;;;;69.60;18.63;;;2.10;86.90;;;;;;5038888;28;20059;-59
2021/01/29 04:16:10;;;;;;;30.38;16.98;;;2.10;87.40;;;;;;5037644;28;20151;-58
2021/01/29 04:18:53;;;;;;;34.97;19.03;;;2.10;89.60;;;;;;5038090;28;20071;-58
2021/01/29 04:21:37;;;;;;;31.70;19.35;;;2.10;88.90;;;;;;5036290;28;20033;-58
2021/01/29 04:24:15;;;;;;;31.65;15.98;;;2.10;89.00;;;;;;5038218;28;20129;-58
2021/01/29 04:26:58;;;;;;;36.80;19.17;;;2.00;90.00;;;;;;5037600;28;20045;-58
2021/01/29 04:29:32;;;;;;;35.17;19.23;;;2.00;89.60;;;;;;5036836;28;20109;-59
2021/01/29 04:32:03;;;;;;;37.77;19.90;;;2.00;90.10;;;;;;5037717;28;20195;-58
2021/01/29 04:34:33;;;;;;;31.23;18.03;;;2.00;90.30;;;;;;5038177;28;20049;-58
2021/01/29 04:37:04;;;;;;;47.83;22.97;;;1.90;89.80;;;;;;5036987;28;20114;-58
2021/01/29 04:39:46;;;;;;;39.80;20.20;;;2.00;90.20;;;;;;5036868;28;20515;-58
2021/01/29 04:42:33;;;;;;;45.83;21.37;;;2.00;90.40;;;;;;5037186;28;20056;-59
2021/01/29 04:45:10;;;;;;;33.97;18.03;;;2.00;90.40;;;;;;5037238;28;20046;-59
2021/01/29 04:48:04;;;;;;;31.60;17.23;;;2.00;90.70;;;;;;5036397;28;20052;-59
2021/01/29 04:50:41;;;;;;;39.67;20.00;;;1.90;90.40;;;;;;5036704;28;20052;-59
2021/01/29 04:53:30;;;;;;;30.43;17.63;;;1.90;90.40;;;;;;5038939;28;20048;-59
2021/01/29 04:56:19;;;;;;;31.13;17.43;;;1.90;90.80;;;;;;5036096;28;20123;-59
2021/01/29 04:59:19;;;;;;;43.40;21.13;;;1.90;91.00;;;;;;5037226;28;20045;-59
2021/01/29 05:01:57;;;;;;;45.73;21.27;;;1.90;90.80;;;;;;5036836;28;20090;-59
2021/01/29 05:04:38;;;;;;;48.93;22.33;;;1.90;91.00;;;;;;5038092;28;20041;-59
2021/01/29 05:07:06;;;;;;;45.97;21.27;;;1.90;91.40;;;;;;5037394;28;20099;-59
2021/01/29 05:10:10;;;;;;;36.37;17.53;;;2.00;91.40;;;;;;5037412;28;20082;-59
2021/01/29 05:12:54;;;;;;;34.55;17.42;;;2.00;91.20;;;;;;5029672;28;20515;-59
2021/01/29 05:15:40;;;;;;;37.77;19.13;;;1.90;91.10;;;;;;5036607;28;20060;-59
2021/01/29 05:18:30;;;;;;;33.40;18.73;;;2.00;91.30;;;;;;5036976;28;20056;-59
2021/01/29 05:21:15;;;;;;;37.47;19.03;;;2.00;91.10;;;;;;5036313;28;20051;-59
2021/01/29 05:24:11;;;;;;;43.07;22.20;;;2.00;91.20;;;;;;5037865;28;20485;-59
2021/01/29 05:27:12;;;;;;;37.67;20.87;;;2.00;91.00;;;;;;5037311;28;20040;-59
2021/01/29 05:30:04;;;;;;;51.70;21.50;;;2.00;91.10;;;;;;5037169;28;20464;-59
2021/01/29 05:32:59;;;;;;;43.40;20.47;;;2.00;91.20;;;;;;5037443;28;20634;-59
2021/01/29 05:35:46;;;;;;;43.83;19.57;;;2.10;91.30;;;;;;5035576;28;20120;-58
2021/01/29 05:38:32;;;;;;;34.63;18.57;;;2.10;91.30;;;;;;5035948;28;20053;-59
2021/01/29 05:41:18;;;;;;;45.40;21.17;;;2.10;91.20;;;;;;5036553;28;22184;-59
2021/01/29 05:44:04;;;;;;;49.40;20.93;;;2.00;91.20;;;;;;5029859;28;20045;-59
2021/01/29 05:46:54;;;;;;;41.47;20.80;;;2.10;91.20;;;;;;5036554;28;20044;-59
2021/01/29 05:49:34;;;;;;;42.43;22.27;;;2.10;91.20;;;;;;5038169;28;20041;-58
2021/01/29 05:52:19;;;;;;;41.00;20.73;;;2.10;90.80;;;;;;5038026;28;20041;-58
2021/01/29 05:55:00;;;;;;;42.90;22.23;;;2.00;91.20;;;;;;5035891;28;20029;-59
2021/01/29 05:57:47;;;;;;;39.20;21.17;;;2.10;91.20;;;;;;5036988;28;20040;-59
2021/01/29 06:00:57;;;;;;;49.27;24.20;;;2.10;91.10;;;;;;5036643;28;20123;-59
2021/01/29 06:03:54;;;;;;;43.87;22.27;;;2.10;91.20;;;;;;5022683;28;20041;-59
2021/01/29 06:06:48;;;;;;;44.73;23.83;;;2.20;91.40;;;;;;5035874;28;20503;-59
2021/01/29 06:09:27;;;;;;;48.60;23.80;;;2.10;91.30;;;;;;5037035;28;20098;-59
2021/01/29 06:11:56;;;;;;;36.37;19.80;;;2.10;91.40;;;;;;5037328;28;20032;-59
2021/01/29 06:14:38;;;;;;;40.80;21.47;;;2.10;91.20;;;;;;5035271;28;20065;-59
2021/01/29 06:17:55;;;;;;;42.70;22.27;;;2.10;91.20;;;;;;5036882;28;20505;-59
2021/01/29 06:21:02;;;;;;;48.27;23.07;;;2.00;91.40;;;;;;5024241;28;20053;-59
2021/01/29 06:23:47;;;;;;;45.57;23.37;;;2.00;91.50;;;;;;5036443;28;20050;-66
2021/01/29 06:26:44;;;;;;;52.93;25.97;;;1.90;91.50;;;;;;5036147;28;20037;-66
2021/01/29 06:29:44;;;;;;;34.60;20.27;;;1.90;91.70;;;;;;5036357;28;20064;-66
2021/01/29 06:32:47;;;;;;;34.77;19.73;;;1.90;91.70;;;;;;5037825;28;20037;-67
2021/01/29 06:35:24;;;;;;;29.10;15.90;;;2.00;92.00;;;;;;5035765;28;20131;-66
2021/01/29 06:37:54;;;;;;;35.93;21.00;;;1.90;91.90;;;;;;5036533;28;20053;-67
2021/01/29 06:40:38;;;;;;;38.97;20.03;;;1.80;92.10;;;;;;5036106;28;22296;-59
2021/01/29 06:43:29;;;;;;;33.10;18.45;;;1.80;91.90;;;;;;5036051;28;20550;-59
2021/01/29 06:45:58;;;;;;;56.30;26.33;;;1.90;92.20;;;;;;5034346;28;20037;-59
2021/01/29 06:49:27;;;;;;;60.60;25.37;;;1.90;92.30;;;;;;5035521;28;20042;-59
2021/01/29 06:52:25;;;;;;;42.53;19.30;;;2.00;92.90;;;;;;5016890;28;20037;-59
2021/01/29 06:55:02;;;;;;;47.37;21.20;;;2.10;93.30;;;;;;5039269;28;20051;-66
2021/01/29 06:57:34;;;;;;;47.33;21.73;;;2.10;93.60;;;;;;5038719;28;20118;-66
2021/01/29 07:00:17;;;;;;;42.00;21.50;;;2.10;93.60;;;;;;5039001;28;20628;-67
2021/01/29 07:03:14;;;;;;;32.97;19.08;;;2.10;93.20;;;;;;5039375;28;20040;-67
2021/01/29 07:05:56;;;;;;;33.30;19.80;;;2.10;93.20;;;;;;5037930;28;20033;-67
2021/01/29 07:08:50;;;;;;;30.57;19.57;;;2.00;93.20;;;;;;5038920;28;20043;-66
2021/01/29 07:11:42;;;;;;;32.93;18.40;;;2.00;93.10;;;;;;5040441;28;20043;-67
2021/01/29 07:14:29;;;;;;;25.87;17.10;;;2.20;93.30;;;;;;5038390;28;20430;-66
2021/01/29 07:17:25;;;;;;;42.83;24.37;;;2.50;93.50;;;;;;5038653;28;20053;-58
2021/01/29 07:20:20;;;;;;;29.67;18.67;;;1.20;93.30;;;;;;5039129;28;20042;-59
2021/01/29 07:22:52;;;;;;;44.10;21.90;;;2.80;93.90;;;;;;5017364;28;20382;-58
2021/01/29 07:25:55;;;;;;;34.30;19.57;;;1.90;93.70;;;;;;5038400;28;20060;-58
2021/01/29 07:28:43;;;;;;;34.53;18.30;;;1.90;93.80;;;;;;5038942;28;20064;-59
2021/01/29 07:31:09;;;;;;;30.33;18.10;;;2.00;94.10;;;;;;5040112;28;20128;-59
2021/01/29 07:34:03;;;;;;;36.07;19.47;;;2.00;94.10;;;;;;5037723;28;20626;-60
2021/01/29 07:36:34;;;;;;;25.75;14.18;;;2.00;94.20;;;;;;5038396;28;20033;-60
2021/01/29 07:39:12;;;;;;;31.07;17.33;;;2.40;94.40;;;;;;5037778;28;20505;-61
2021/01/29 07:41:50;;;;;;;28.53;16.10;;;1.90;94.30;;;;;;5054495;28;20041;-60
2021/01/29 07:44:37;;;;;;;28.67;15.70;;;1.70;94.30;;;;;;5037150;28;20048;-60
2021/01/29 07:47:06;;;;;;;26.63;15.93;;;1.30;94.20;;;;;;5037725;28;20164;-60
2021/01/29 07:49:55;;;;;;;30.80;18.87;;;1.40;94.30;;;;;;5039487;28;20029;-58
2021/01/29 07:52:42;;;;;;;29.53;16.53;;;2.30;94.70;;;;;;5037272;28;20033;-58
2021/01/29 07:55:27;;;;;;;29.23;17.17;;;2.40;94.80;;;;;;5038362;28;20049;-68
2021/01/29 07:58:16;;;;;;;;;;;1.60;94.80;;;;;;5038897;28;20048;-68
2021/01/29 08:00:47;;;;;;;34.20;17.80;;;2.00;95.00;;;;;;5039157;28;20039;-66
2021/01/29 08:03:50;;;;;;;34.47;17.90;;;1.70;95.30;;;;;;5036155;28;20678;-66
2021/01/29 08:06:24;;;;;;;31.00;16.87;;;2.40;95.60;;;;;;5038759;28;20037;-67
2021/01/29 08:09:02;;;;;;;43.63;19.37;;;1.50;96.00;;;;;;5039205;28;20295;-69
2021/01/29 08:11:31;;;;;;;29.33;16.67;;;1.70;98.00;;;;;;5036532;28;20041;-68
2021/01/29 08:14:07;;;;;;;25.73;14.87;;;2.70;98.70;;;;;;5037108;28;20037;-66
2021/01/29 08:16:59;;;;;;;25.43;15.20;;;2.10;98.70;;;;;;5034494;28;20036;-66
2021/01/29 08:19:42;;;;;;;27.47;15.50;;;2.10;99.00;;;;;;5017180;28;20068;-66
2021/01/29 08:22:31;;;;;;;25.42;14.50;;;2.20;99.00;;;;;;5038872;28;20040;-68
2021/01/29 08:25:33;;;;;;;23.47;13.67;;;1.60;99.00;;;;;;5039923;28;20046;-70
2021/01/29 08:28:08;;;;;;;23.87;13.13;;;2.30;99.30;;;;;;5037476;28;20084;-69
2021/01/29 08:30:51;;;;;;;24.83;14.80;;;2.10;99.30;;;;;;5038411;28;21707;-62
2021/01/29 08:33:48;;;;;;;25.60;12.00;;;2.10;99.30;;;;;;5038340;28;20040;-62
2021/01/29 08:36:45;;;;;;;24.43;13.73;;;2.30;99.40;;;;;;5036513;28;20036;-63
2021/01/29 08:39:30;;;;;;;30.83;16.77;;;2.00;99.50;;;;;;5039508;28;20461;-63
2021/01/29 08:42:29;;;;;;;21.27;12.70;;;2.30;99.70;;;;;;5037965;28;20044;-66
2021/01/29 08:45:12;;;;;;;25.87;14.37;;;2.20;99.80;;;;;;5037232;28;20123;-66
2021/01/29 08:47:54;;;;;;;41.28;19.00;;;2.20;99.80;;;;;;5039532;28;20044;-65
2021/01/29 08:50:47;;;;;;;29.50;15.13;;;2.20;99.90;;;;;;5036841;28;20067;-65
2021/01/29 08:53:34;;;;;;;25.97;15.13;;;2.20;99.90;;;;;;5038243;28;20037;-62
2021/01/29 08:56:21;;;;;;;27.87;15.73;;;2.10;99.90;;;;;;5037664;28;20594;-62
2021/01/29 08:59:08;;;;;;;28.53;16.97;;;1.90;99.90;;;;;;5037412;28;20041;-62
2021/01/29 09:01:52;;;;;;;32.00;18.00;;;2.20;99.90;;;;;;5037594;28;20037;-61
2021/01/29 09:04:24;;;;;;;38.63;18.90;;;2.30;99.90;;;;;;5037319;28;20095;-68
2021/01/29 09:06:53;;;;;;;32.07;17.50;;;1.80;99.90;;;;;;5039004;28;20153;-67
2021/01/29 09:09:30;;;;;;;30.00;17.93;;;2.20;99.90;;;;;;5037290;28;20040;-77
2021/01/29 09:12:01;;;;;;;35.00;18.40;;;1.80;99.90;;;;;;5037458;28;20201;-72
2021/01/29 09:14:48;;;;;;;28.67;16.60;;;1.70;99.90;;;;;;5035421;28;20112;-73
2021/01/29 09:17:20;;;;;;;27.30;17.43;;;1.60;99.90;;;;;;5034798;28;20029;-69
2021/01/29 09:19:55;;;;;;;31.17;16.97;;;2.10;99.90;;;;;;5037915;28;20117;-79
2021/01/29 09:22:40;;;;;;;41.37;24.07;;;2.20;99.90;;;;;;5037787;28;20045;-74
2021/01/29 09:25:30;;;;;;;40.00;26.53;;;1.30;99.90;;;;;;5036726;28;20055;-73
2021/01/29 09:28:05;;;;;;;55.70;33.40;;;1.70;99.90;;;;;;5042014;28;20052;-75
2021/01/29 09:30:40;;;;;;;44.47;29.00;;;1.90;99.90;;;;;;5040566;28;20025;-74
2021/01/29 09:33:20;;;;;;;73.73;34.07;;;1.20;99.90;;;;;;5039560;28;20130;-76
2021/01/29 09:36:18;;;;;;;43.20;23.20;;;2.20;99.90;;;;;;5038560;28;20034;-70
2021/01/29 09:38:51;;;;;;;64.23;31.33;;;1.40;99.90;;;;;;5037237;28;22296;-68
2021/01/29 09:41:21;;;;;;;56.57;31.53;;;2.10;99.90;;;;;;5035567;28;20063;-70
2021/01/29 09:43:56;;;;;;;41.07;24.17;;;1.30;99.90;;;;;;5039837;28;20041;-73
2021/01/29 09:46:30;;;;;;;34.53;19.40;;;1.50;99.90;;;;;;5036651;28;20114;-73
2021/01/29 09:49:20;;;;;;;38.42;21.60;;;2.20;99.90;;;;;;5040728;28;20044;-73
2021/01/29 09:52:06;;;;;;;56.67;28.50;;;1.50;99.90;;;;;;5035662;28;20073;-71
2021/01/29 09:54:42;;;;;;;28.92;16.10;;;1.70;99.90;;;;;;5037527;28;20037;-75
2021/01/29 09:57:37;;;;;;;36.80;18.13;;;2.10;99.90;;;;;;5037250;28;20052;-76
2021/01/29 10:00:14;;;;;;;42.20;20.27;;;1.60;99.90;;;;;;5035368;28;20064;-75
2021/01/29 10:02:40;;;;;;;32.43;18.13;;;2.00;99.90;;;;;;5034290;28;20029;-72
2021/01/29 10:05:20;;;;;;;40.97;20.33;;;2.00;99.90;;;;;;5035655;28;20500;-74
2021/01/29 10:08:11;;;;;;;43.43;20.13;;;2.10;99.90;;;;;;5038435;28;20042;-66
2021/01/29 10:10:42;;;;;;;25.77;15.30;;;2.00;99.90;;;;;;5016670;28;20539;-63
2021/01/29 10:13:24;;;;;;;37.95;17.77;;;2.00;99.90;;;;;;5033369;28;20175;-64
2021/01/29 10:16:08;;;;;;;35.03;17.67;;;2.10;99.90;;;;;;5034698;28;20037;-63
2021/01/29 10:18:36;;;;;;;38.03;18.92;;;2.10;99.90;;;;;;5038291;28;20037;-63
2021/01/29 10:21:13;;;;;;;29.30;15.73;;;2.20;99.90;;;;;;5037990;28;20041;-62
2021/01/29 10:23:45;;;;;;;43.63;19.60;;;2.30;99.90;;;;;;5037175;28;20037;-62
2021/01/29 10:26:25;;;;;;;28.70;16.58;;;2.20;99.90;;;;;;5040085;28;20044;-62
2021/01/29 10:28:51;;;;;;;27.60;16.83;;;2.10;99.90;;;;;;5041860;28;20044;-62
2021/01/29 10:31:20;;;;;;;28.42;16.67;;;2.30;99.90;;;;;;5040022;28;20033;-61
2021/01/29 10:33:50;;;;;;;31.67;16.93;;;2.20;99.90;;;;;;5041107;28;20067;-63
2021/01/29 10:36:23;;;;;;;31.20;17.92;;;2.30;99.90;;;;;;5039168;28;20416;-70
2021/01/29 10:39:13;;;;;;;33.70;17.60;;;2.40;99.90;;;;;;5040047;28;20493;-70
2021/01/29 10:41:42;;;;;;;35.42;18.38;;;2.50;99.90;;;;;;5038503;28;20045;-70
2021/01/29 10:44:16;;;;;;;39.70;19.25;;;2.40;99.90;;;;;;5042017;28;20041;-73
2021/01/29 10:47:00;;;;;;;31.87;16.27;;;2.30;99.90;;;;;;5040106;28;20090;-73
2021/01/29 10:49:50;;;;;;;31.20;16.08;;;2.60;99.90;;;;;;5039221;28;20116;-73
2021/01/29 10:52:16;;;;;;;33.63;17.20;;;2.50;99.90;;;;;;5043207;28;20037;-73
2021/01/29 10:54:42;;;;;;;43.83;22.03;;;2.30;99.90;;;;;;5043392;28;20047;-76
2021/01/29 10:57:27;;;;;;;53.58;25.98;;;2.60;99.90;;;;;;5039937;28;20056;-68
2021/01/29 11:00:07;;;;;;;59.80;29.48;;;2.60;99.90;;;;;;5039998;28;20072;-64
2021/01/29 11:02:43;;;;;;;57.88;24.20;;;2.30;99.90;;;;;;5039347;28;20033;-62
2021/01/29 11:05:18;;;;;;;42.77;21.33;;;2.60;99.90;;;;;;5040728;28;20037;-66
2021/01/29 11:07:48;;;;;;;41.00;19.63;;;2.50;99.90;;;;;;5039405;28;20041;-66
2021/01/29 11:10:20;;;;;;;34.95;18.15;;;2.40;99.90;;;;;;5039098;28;20401;-65
2021/01/29 11:13:19;;;;;;;25.90;14.75;;;2.50;99.90;;;;;;5038835;28;20473;-65
2021/01/29 11:15:50;;;;;;;34.65;18.25;;;2.30;99.90;;;;;;5035900;28;20037;-65
2021/01/29 11:18:25;;;;;;;24.63;13.38;;;2.40;99.90;;;;;;5037798;28;20056;-66
2021/01/29 11:21:03;;;;;;;37.33;18.52;;;2.40;99.90;;;;;;5039691;28;20041;-65
2021/01/29 11:23:44;;;;;;;36.97;18.42;;;2.60;99.90;;;;;;5036967;28;20037;-66
2021/01/29 11:26:26;;;;;;;34.63;20.97;;;2.60;99.90;;;;;;5038792;28;20037;-66
2021/01/29 11:28:52;;;;;;;52.07;31.57;;;2.60;99.90;;;;;;5040201;28;20116;-65
2021/01/29 11:31:29;;;;;;;81.53;41.85;;;2.40;99.90;;;;;;5039499;28;20741;-66
2021/01/29 11:33:58;;;;;;;91.80;47.00;;;2.50;99.90;;;;;;5036346;28;20116;-64
2021/01/29 11:36:35;;;;;;;111.85;51.13;;;2.80;99.90;;;;;;5038248;28;20559;-64
2021/01/29 11:39:23;;;;;;;68.30;34.28;;;2.70;99.90;;;;;;5038811;28;20064;-65
2021/01/29 11:42:01;;;;;;;74.20;35.00;;;2.70;99.90;;;;;;5039561;28;20044;-64
2021/01/29 11:44:45;;;;;;;66.55;32.50;;;2.30;99.90;;;;;;5040183;28;20057;-65
2021/01/29 11:47:46;;;;;;;73.70;34.85;;;2.50;99.90;;;;;;5039888;28;20049;-65
2021/01/29 11:50:39;;;;;;;65.35;33.70;;;2.50;99.90;;;;;;5034957;28;20073;-65
2021/01/29 11:53:50;;;;;;;55.00;30.25;;;2.70;99.90;;;;;;5038941;28;20036;-66
2021/01/29 11:56:50;;;;;;;87.88;38.58;;;2.40;99.90;;;;;;5038266;28;20110;-63
2021/01/29 11:59:55;;;;;;;84.80;34.10;;;2.60;99.90;;;;;;5036962;28;20071;-62
2021/01/29 12:02:32;;;;;;;63.30;30.00;;;2.50;99.90;;;;;;5038516;28;20037;-62
2021/01/29 12:05:21;;;;;;;47.20;24.92;;;2.70;99.90;;;;;;5038008;28;20090;-63
2021/01/29 12:08:21;;;;;;;72.18;33.42;;;2.40;99.90;;;;;;5038553;28;20493;-64
2021/01/29 12:11:27;;;;;;;78.47;35.17;;;2.30;99.90;;;;;;5037736;28;20071;-64
2021/01/29 12:14:21;;;;;;;48.38;24.50;;;2.40;99.90;;;;;;5037702;28;20057;-64
2021/01/29 12:16:55;;;;;;;45.08;23.80;;;2.50;99.90;;;;;;5037861;28;20127;-62
2021/01/29 12:19:36;;;;;;;58.00;29.03;;;2.50;99.90;;;;;;5038063;28;20516;-61
2021/01/29 12:22:07;;;;;;;65.45;34.63;;;2.50;99.90;;;;;;5038561;28;20052;-62
2021/01/29 12:24:37;;;;;;;56.50;30.55;;;2.40;99.90;;;;;;5038506;28;20075;-61
2021/01/29 12:27:10;;;;;;;45.83;23.30;;;2.60;99.90;;;;;;5038773;28;20128;-61
2021/01/29 12:30:03;;;;;;;47.47;23.90;;;2.40;99.90;;;;;;5035992;28;20033;-61
2021/01/29 12:33:12;;;;;;;60.63;23.60;;;2.70;99.90;;;;;;5037493;28;20029;-66
2021/01/29 12:35:55;;;;;;;65.65;22.13;;;2.70;99.90;;;;;;5028727;28;20060;-70
2021/01/29 12:38:30;;;;;;;35.35;17.55;;;2.90;99.90;;;;;;5036169;28;20141;-67
2021/01/29 12:41:35;;;;;;;66.88;23.92;;;2.70;99.90;;;;;;5038715;28;20134;-71
2021/01/29 12:44:18;;;;;;;52.58;21.75;;;2.80;99.90;;;;;;5053480;28;20175;-71
2021/01/29 12:46:59;;;;;;;30.23;16.85;;;2.90;99.90;;;;;;5035728;28;20039;-68
2021/01/29 12:49:52;;;;;;;42.03;22.10;;;2.60;99.90;;;;;;5037245;28;20037;-66
2021/01/29 12:52:27;;;;;;;27.05;15.77;;;2.90;99.90;;;;;;5037950;28;20033;-65
2021/01/29 12:55:19;;;;;;;39.90;22.65;;;2.90;99.90;;;;;;5037987;28;20044;-71
2021/01/29 12:58:01;;;;;;;60.67;28.45;;;2.60;99.90;;;;;;5036581;28;20107;-71
2021/01/29 13:00:33;;;;;;;69.55;33.67;;;2.70;99.90;;;;;;5038263;28;20482;-69
2021/01/29 13:03:01;;;;;;;60.65;31.92;;;2.70;99.90;;;;;;5038599;28;20033;-66
2021/01/29 13:06:06;;;;;;;70.43;35.28;;;2.80;99.90;;;;;;5036988;28;20039;-68
2021/01/29 13:08:42;;;;;;;86.38;40.08;;;2.60;99.90;;;;;;5036146;28;20056;-68
2021/01/29 13:11:18;;;;;;;110.60;40.22;;;2.90;99.90;;;;;;5035595;28;20147;-70
2021/01/29 13:14:20;;;;;;;111.10;39.17;;;2.80;99.90;;;;;;5038147;28;20561;-67
2021/01/29 13:17:30;;;;;;;87.22;33.30;;;2.90;99.90;;;;;;5036263;28;20034;-67
2021/01/29 13:20:04;;;;;;;74.82;29.42;;;2.90;99.90;;;;;;5037565;28;20174;-61
2021/01/29 13:22:42;;;;;;;74.25;28.50;;;2.90;99.90;;;;;;5035669;28;20041;-61
2021/01/29 13:25:08;;;;;;;57.65;23.65;;;2.70;99.90;;;;;;5037342;28;20107;-62
2021/01/29 13:27:39;;;;;;;77.57;24.02;;;2.90;99.90;;;;;;5038117;28;20045;-63
2021/01/29 13:30:20;;;;;;;66.47;25.45;;;2.80;99.90;;;;;;5036260;28;20037;-61
2021/01/29 13:32:47;;;;;;;75.50;25.67;;;3.00;99.90;;;;;;5036709;28;20041;-61
2021/01/29 13:35:19;;;;;;;110.15;30.45;;;2.90;99.90;;;;;;5036689;28;20056;-61
2021/01/29 13:37:46;;;;;;;85.63;26.85;;;3.00;99.90;;;;;;5038414;28;20110;-61
2021/01/29 13:40:25;;;;;;;178.70;32.08;;;2.90;99.90;;;;;;5035737;28;20040;-62
2021/01/29 13:42:53;;;;;;;81.00;24.30;;;3.00;99.90;;;;;;5036262;28;20504;-61
2021/01/29 13:45:33;;;;;;;57.35;20.90;;;3.00;99.90;;;;;;5036241;28;20543;-61